Time;durP1;ratioP1;P1;durP2;ratioP2;P2;SDS_P1;SDS_P2;PMS_P1;PMS_P2;Temp;Humidity;BMP_temperature;BMP_pressure;BME280_temperature;BME280_humidity;BME280_pressure;Samples;Min_cycle;Max_cycle;Signal;HPM_P1;HPM_P2
2023/04/21 00:01:17;;;;;;;24.30;16.10;;;;;;;;;;5078198;28;20474;-88
2023/04/21 00:03:43;;;;;;;22.50;16.02;;;;;;;;;;5077894;28;20837;-86
2023/04/21 00:06:09;;;;;;;23.45;16.77;;;;;;;;;;5075772;28;20428;-84
2023/04/21 00:08:39;;;;;;;24.80;17.17;;;;;;;;;;5077820;28;20426;-84
2023/04/21 00:11:06;;;;;;;23.13;15.77;;;;;;;;;;5077851;28;20424;-84
2023/04/21 00:13:33;;;;;;;20.80;15.48;;;;;;;;;;5076929;28;20431;-84
2023/04/21 00:15:59;;;;;;;23.45;16.13;;;;;;;;;;5075911;28;20427;-84
2023/04/21 00:18:26;;;;;;;21.05;15.80;;;;;;;;;;5078835;28;20458;-84
2023/04/21 00:20:53;;;;;;;21.90;15.45;;;;;;;;;;5075607;28;20427;-84
2023/04/21 00:23:19;;;;;;;24.45;16.25;;;;;;;;;;5075885;28;20502;-84
2023/04/21 00:25:45;;;;;;;21.20;15.90;;;;;;;;;;5078477;28;20408;-84
2023/04/21 00:28:13;;;;;;;21.17;15.40;;;;;;;;;;5076355;28;20434;-85
2023/04/21 00:30:39;;;;;;;24.65;17.05;;;;;;;;;;5077437;28;20415;-84
2023/04/21 00:33:06;;;;;;;29.30;17.52;;;;;;;;;;5079826;28;20438;-84
2023/04/21 00:35:32;;;;;;;22.55;16.17;;;;;;;;;;5074502;28;20432;-83
2023/04/21 00:37:59;;;;;;;25.02;16.00;;;;;;;;;;5079139;28;20407;-85
2023/04/21 00:40:25;;;;;;;25.60;17.70;;;;;;;;;;5077731;28;20424;-83
2023/04/21 00:42:52;;;;;;;22.02;15.77;;;;;;;;;;5069262;28;20429;-83
2023/04/21 00:45:20;;;;;;;22.92;16.35;;;;;;;;;;5076887;28;20423;-85
2023/04/21 00:47:46;;;;;;;23.23;16.63;;;;;;;;;;5077308;28;20459;-84
2023/04/21 00:50:12;;;;;;;24.53;16.50;;;;;;;;;;5074794;28;20488;-85
2023/04/21 00:52:39;;;;;;;26.23;15.48;;;;;;;;;;5077002;28;20412;-84
2023/04/21 00:55:06;;;;;;;23.67;16.45;;;;;;;;;;5078350;28;20448;-84
2023/04/21 00:57:33;;;;;;;25.25;16.88;;;;;;;;;;5075061;28;20412;-84
2023/04/21 00:59:59;;;;;;;22.70;16.73;;;;;;;;;;5075214;28;20421;-84
2023/04/21 01:02:27;;;;;;;20.30;16.50;;;;;;;;;;5074773;28;20437;-84
2023/04/21 01:04:53;;;;;;;25.17;16.50;;;;;;;;;;5075668;28;20418;-84
2023/04/21 01:07:20;;;;;;;25.20;16.50;;;;;;;;;;5077442;28;20410;-83
2023/04/21 01:09:46;;;;;;;24.55;17.08;;;;;;;;;;5078785;28;20797;-84
2023/04/21 01:12:12;;;;;;;26.10;18.00;;;;;;;;;;5077783;28;20923;-84
2023/04/21 01:14:39;;;;;;;24.83;18.30;;;;;;;;;;5074988;28;20919;-84
2023/04/21 01:17:06;;;;;;;24.63;17.90;;;;;;;;;;5077433;28;20423;-84
2023/04/21 01:19:36;;;;;;;23.75;17.90;;;;;;;;;;5075375;28;20943;-85
2023/04/21 01:22:03;;;;;;;26.35;18.38;;;;;;;;;;5074140;28;20435;-84
2023/04/21 01:24:36;;;;;;;26.47;19.80;;;;;;;;;;5076362;28;20845;-84
2023/04/21 01:27:03;;;;;;;27.05;18.30;;;;;;;;;;5077054;28;20814;-83
2023/04/21 01:29:32;;;;;;;27.20;19.40;;;;;;;;;;5072569;28;20412;-84
2023/04/21 01:31:58;;;;;;;30.20;18.80;;;;;;;;;;5077760;23;20456;-80
2023/04/21 01:34:24;;;;;;;26.17;19.27;;;;;;;;;;5025778;28;21053;-79
2023/04/21 01:36:51;;;;;;;25.58;18.48;;;;;;;;;;5009383;28;20436;-81
2023/04/21 01:39:19;;;;;;;30.88;19.60;;;;;;;;;;5006580;28;20440;-80
2023/04/21 01:41:45;;;;;;;25.65;19.52;;;;;;;;;;5009156;28;20511;-82
2023/04/21 01:44:11;;;;;;;28.85;20.30;;;;;;;;;;5008028;28;21047;-79
2023/04/21 01:46:38;;;;;;;29.60;19.77;;;;;;;;;;5028322;28;20416;-81
2023/04/21 01:49:04;;;;;;;25.38;18.30;;;;;;;;;;5028890;28;20469;-81
2023/04/21 01:51:31;;;;;;;26.02;18.88;;;;;;;;;;5026141;28;20427;-79
2023/04/21 01:53:57;;;;;;;30.25;18.65;;;;;;;;;;5028510;28;20817;-79
2023/04/21 01:56:25;;;;;;;29.55;18.65;;;;;;;;;;5004788;28;20434;-80
2023/04/21 01:58:52;;;;;;;24.57;17.30;;;;;;;;;;5027835;28;20427;-82
2023/04/21 02:01:18;;;;;;;29.98;18.58;;;;;;;;;;5027234;28;20435;-81
2023/04/21 02:03:46;;;;;;;30.42;19.00;;;;;;;;;;5028625;28;20418;-80
2023/04/21 02:06:13;;;;;;;24.58;18.50;;;;;;;;;;5026177;28;20435;-81
2023/04/21 02:08:40;;;;;;;26.35;18.70;;;;;;;;;;5028754;28;20508;-80
2023/04/21 02:11:06;;;;;;;29.92;18.77;;;;;;;;;;5027521;28;20430;-80
2023/04/21 02:13:34;;;;;;;29.03;18.37;;;;;;;;;;5028258;28;20594;-82
2023/04/21 02:16:01;;;;;;;24.88;17.45;;;;;;;;;;5028187;28;20431;-81
2023/04/21 02:18:28;;;;;;;22.52;17.42;;;;;;;;;;5028252;28;20422;-79
2023/04/21 02:20:55;;;;;;;26.20;17.10;;;;;;;;;;5009175;28;20427;-78
2023/04/21 02:23:21;;;;;;;27.35;18.05;;;;;;;;;;5009870;28;20433;-80
2023/04/21 02:25:48;;;;;;;25.13;17.25;;;;;;;;;;5028441;28;20426;-81
2023/04/21 02:28:14;;;;;;;26.15;17.85;;;;;;;;;;5010098;28;20437;-78
2023/04/21 02:30:42;;;;;;;23.60;17.25;;;;;;;;;;5020964;28;20812;-79
2023/04/21 02:33:08;;;;;;;24.35;18.35;;;;;;;;;;5026316;28;20946;-81
2023/04/21 02:35:35;;;;;;;24.40;17.20;;;;;;;;;;5027478;28;20477;-81
2023/04/21 02:38:06;;;;;;;28.10;17.17;;;;;;;;;;5027360;28;20427;-81
2023/04/21 02:40:32;;;;;;;26.25;17.55;;;;;;;;;;5028077;28;20450;-82
2023/04/21 02:42:59;;;;;;;23.17;16.50;;;;;;;;;;5027544;28;20411;-81
2023/04/21 02:45:25;;;;;;;22.50;16.87;;;;;;;;;;5025263;28;20438;-78
2023/04/21 02:47:53;;;;;;;23.45;17.65;;;;;;;;;;5027496;28;20431;-79
2023/04/21 02:50:19;;;;;;;23.00;16.50;;;;;;;;;;5027716;28;20809;-81
2023/04/21 02:52:46;;;;;;;25.35;18.08;;;;;;;;;;5010154;28;20423;-79
2023/04/21 02:55:12;;;;;;;26.10;17.90;;;;;;;;;;5027515;28;20431;-79
2023/04/21 02:57:38;;;;;;;23.15;17.13;;;;;;;;;;5026858;28;20415;-81
2023/04/21 03:00:06;;;;;;;27.48;16.58;;;;;;;;;;5029335;28;20931;-79
2023/04/21 03:02:33;;;;;;;22.30;16.00;;;;;;;;;;5013585;28;20481;-80
2023/04/21 03:05:01;;;;;;;24.02;16.80;;;;;;;;;;5013176;28;20943;-81
2023/04/21 03:07:27;;;;;;;24.70;16.40;;;;;;;;;;5031681;28;20430;-80
2023/04/21 03:09:54;;;;;;;26.60;17.30;;;;;;;;;;5031521;28;20916;-81
2023/04/21 03:12:20;;;;;;;23.92;16.27;;;;;;;;;;5031694;28;20419;-79
2023/04/21 03:14:47;;;;;;;20.15;15.00;;;;;;;;;;5031172;28;20419;-79
2023/04/21 03:17:13;;;;;;;25.80;17.17;;;;;;;;;;5032305;28;20419;-79
2023/04/21 03:19:40;;;;;;;24.13;16.38;;;;;;;;;;5031729;28;20419;-79
2023/04/21 03:22:07;;;;;;;25.88;16.65;;;;;;;;;;5029277;28;20435;-81
2023/04/21 03:24:35;;;;;;;21.08;15.00;;;;;;;;;;5031744;28;20423;-81
2023/04/21 03:27:01;;;;;;;23.05;16.10;;;;;;;;;;5031742;28;20439;-81
2023/04/21 03:29:28;;;;;;;25.33;16.30;;;;;;;;;;5031261;28;20904;-81
2023/04/21 03:31:54;;;;;;;27.05;16.20;;;;;;;;;;5031289;28;20422;-81
2023/04/21 03:34:20;;;;;;;22.55;16.15;;;;;;;;;;5030784;28;20426;-81
2023/04/21 03:36:47;;;;;;;24.20;16.40;;;;;;;;;;5031030;28;20446;-80
2023/04/21 03:39:15;;;;;;;21.23;14.95;;;;;;;;;;5029624;28;20446;-79
2023/04/21 03:41:41;;;;;;;24.20;16.80;;;;;;;;;;5031454;28;20423;-80
2023/04/21 03:44:07;;;;;;;27.05;16.80;;;;;;;;;;5031886;28;20418;-81
2023/04/21 03:46:34;;;;;;;24.52;16.13;;;;;;;;;;5031269;28;20935;-81
2023/04/21 03:49:00;;;;;;;23.00;15.55;;;;;;;;;;5031408;28;20788;-81
2023/04/21 03:51:27;;;;;;;23.75;15.18;;;;;;;;;;5030567;28;20415;-81
2023/04/21 03:53:53;;;;;;;25.58;16.50;;;;;;;;;;5029830;28;20462;-81
2023/04/21 03:56:21;;;;;;;21.03;15.10;;;;;;;;;;5031060;28;20527;-81
2023/04/21 03:58:48;;;;;;;19.25;15.50;;;;;;;;;;5031280;28;20521;-81
2023/04/21 04:01:14;;;;;;;23.53;15.53;;;;;;;;;;5030801;28;20461;-81
2023/04/21 04:03:41;;;;;;;23.35;16.70;;;;;;;;;;5030568;28;20790;-80
2023/04/21 04:06:08;;;;;;;21.77;15.45;;;;;;;;;;5029835;28;20423;-82
2023/04/21 04:08:34;;;;;;;22.00;14.70;;;;;;;;;;5029981;28;20447;-81
2023/04/21 04:11:01;;;;;;;22.07;15.20;;;;;;;;;;5031347;28;20495;-81
2023/04/21 04:13:29;;;;;;;22.52;14.73;;;;;;;;;;5013620;28;20418;-81
2023/04/21 04:15:55;;;;;;;24.05;15.55;;;;;;;;;;5031084;28;20446;-80
2023/04/21 04:18:22;;;;;;;21.73;16.15;;;;;;;;;;5027239;28;20431;-81
2023/04/21 04:20:48;;;;;;;23.83;15.77;;;;;;;;;;5028749;28;20496;-81
2023/04/21 04:23:14;;;;;;;20.73;15.40;;;;;;;;;;5031227;28;20892;-81
2023/04/21 04:25:41;;;;;;;22.85;15.70;;;;;;;;;;5029446;28;21015;-81
2023/04/21 04:28:08;;;;;;;24.20;15.88;;;;;;;;;;5031994;28;20430;-81
2023/04/21 04:30:36;;;;;;;22.85;15.38;;;;;;;;;;5029822;28;20438;-81
2023/04/21 04:33:02;;;;;;;21.58;14.80;;;;;;;;;;5031535;28;20422;-81
2023/04/21 04:35:29;;;;;;;22.15;14.70;;;;;;;;;;5030983;28;20423;-82
2023/04/21 04:37:55;;;;;;;25.25;15.45;;;;;;;;;;5012543;28;20461;-81
2023/04/21 04:40:22;;;;;;;25.38;16.30;;;;;;;;;;5029296;28;20434;-81
2023/04/21 04:42:48;;;;;;;24.10;15.43;;;;;;;;;;5030942;28;20419;-81
2023/04/21 04:45:15;;;;;;;20.23;14.70;;;;;;;;;;5029609;28;20407;-81
2023/04/21 04:47:44;;;;;;;22.30;14.90;;;;;;;;;;5031498;28;20469;-81
2023/04/21 04:50:11;;;;;;;22.00;13.90;;;;;;;;;;5030887;28;20506;-81
2023/04/21 04:52:37;;;;;;;21.80;14.95;;;;;;;;;;5030398;28;20454;-81
2023/04/21 04:55:04;;;;;;;19.70;14.40;;;;;;;;;;5013258;28;20419;-82
2023/04/21 04:57:31;;;;;;;24.77;15.50;;;;;;;;;;5030387;28;20446;-82
2023/04/21 04:59:57;;;;;;;21.17;15.27;;;;;;;;;;5005776;28;20460;-80
2023/04/21 05:02:24;;;;;;;19.83;15.13;;;;;;;;;;5029703;28;20411;-81
2023/04/21 05:04:52;;;;;;;22.25;15.70;;;;;;;;;;5029951;28;20415;-80
2023/04/21 05:07:18;;;;;;;21.63;15.10;;;;;;;;;;5029177;28;20438;-80
2023/04/21 05:09:45;;;;;;;21.58;14.88;;;;;;;;;;5029064;28;20518;-81
2023/04/21 05:12:11;;;;;;;22.77;15.70;;;;;;;;;;5027668;28;20439;-81
2023/04/21 05:14:37;;;;;;;23.25;15.18;;;;;;;;;;5029336;28;20423;-81
2023/04/21 05:17:04;;;;;;;20.60;14.88;;;;;;;;;;5030055;28;20422;-82
2023/04/21 05:19:30;;;;;;;23.67;14.95;;;;;;;;;;5029353;28;20411;-81
2023/04/21 05:22:00;;;;;;;21.37;14.13;;;;;;;;;;5026438;28;20462;-80
2023/04/21 05:24:28;;;;;;;21.95;14.73;;;;;;;;;;5028866;28;20851;-81
2023/04/21 05:26:56;;;;;;;23.00;14.93;;;;;;;;;;5029962;28;20495;-80
2023/04/21 05:29:22;;;;;;;19.42;14.48;;;;;;;;;;5028295;28;20788;-81
2023/04/21 05:31:48;;;;;;;23.27;14.45;;;;;;;;;;5028336;28;20939;-80
2023/04/21 05:34:17;;;;;;;19.60;14.18;;;;;;;;;;5028944;28;20857;-81
2023/04/21 05:36:44;;;;;;;21.35;13.60;;;;;;;;;;5028272;28;21058;-81
2023/04/21 05:39:11;;;;;;;20.50;14.10;;;;;;;;;;5029655;28;20494;-80
2023/04/21 05:41:38;;;;;;;18.37;13.80;;;;;;;;;;5029377;28;20430;-80
2023/04/21 05:44:04;;;;;;;19.80;13.97;;;;;;;;;;5024902;28;20522;-79
2023/04/21 05:46:33;;;;;;;21.90;14.70;;;;;;;;;;5025289;28;20423;-80
2023/04/21 05:49:01;;;;;;;20.88;13.90;;;;;;;;;;5023510;28;20450;-81
2023/04/21 05:51:27;;;;;;;27.00;14.60;;;;;;;;;;5008536;28;20947;-80
2023/04/21 05:53:53;;;;;;;19.48;13.93;;;;;;;;;;5028587;28;20427;-79
2023/04/21 05:56:21;;;;;;;17.50;13.87;;;;;;;;;;5024556;28;20426;-78
2023/04/21 05:58:47;;;;;;;20.67;14.43;;;;;;;;;;5025147;28;20430;-78
2023/04/21 06:01:14;;;;;;;21.30;13.63;;;;;;;;;;5002665;28;20427;-79
2023/04/21 06:03:40;;;;;;;21.05;14.27;;;;;;;;;;5026311;28;20433;-80
2023/04/21 06:06:08;;;;;;;21.20;14.20;;;;;;;;;;5027915;28;20419;-79
2023/04/21 06:08:34;;;;;;;24.30;13.93;;;;;;;;;;5028613;28;20435;-79
2023/04/21 06:11:01;;;;;;;22.77;13.77;;;;;;;;;;5028176;28;20557;-80
2023/04/21 06:13:28;;;;;;;21.92;13.95;;;;;;;;;;5028654;28;20410;-80
2023/04/21 06:15:56;;;;;;;20.75;14.13;;;;;;;;;;5028552;28;20419;-79
2023/04/21 06:18:22;;;;;;;17.23;13.15;;;;;;;;;;5006671;28;20496;-80
2023/04/21 06:20:52;;;;;;;15.57;12.30;;;;;;;;;;5026006;28;20430;-80
2023/04/21 06:23:19;;;;;;;16.73;13.57;;;;;;;;;;5027099;28;20422;-80
2023/04/21 06:25:45;;;;;;;21.27;13.77;;;;;;;;;;5024027;28;20801;-79
2023/04/21 06:28:12;;;;;;;18.90;13.05;;;;;;;;;;5029697;28;20415;-80
2023/04/21 06:30:39;;;;;;;22.05;15.25;;;;;;;;;;5028217;28;20797;-80
2023/04/21 06:33:06;;;;;;;20.92;13.43;;;;;;;;;;5028082;28;20916;-80
2023/04/21 06:35:33;;;;;;;17.08;13.98;;;;;;;;;;5031386;28;20509;-81
2023/04/21 06:38:01;;;;;;;17.50;13.02;;;;;;;;;;5030666;28;20434;-80
2023/04/21 06:40:27;;;;;;;19.25;13.52;;;;;;;;;;5029778;28;21027;-80
2023/04/21 06:42:54;;;;;;;19.50;12.70;;;;;;;;;;5032475;28;20948;-80
2023/04/21 06:45:20;;;;;;;17.02;12.85;;;;;;;;;;5029066;28;20558;-80
2023/04/21 06:47:48;;;;;;;23.08;12.88;;;;;;;;;;5031938;28;20931;-79
2023/04/21 06:50:15;;;;;;;18.98;13.90;;;;;;;;;;5032113;28;21053;-81
2023/04/21 06:52:41;;;;;;;17.33;13.63;;;;;;;;;;5008208;28;20435;-82
2023/04/21 06:55:08;;;;;;;20.02;13.23;;;;;;;;;;5032692;28;20419;-80
2023/04/21 06:57:34;;;;;;;18.23;13.57;;;;;;;;;;5031658;28;20430;-79
2023/04/21 07:00:01;;;;;;;20.07;13.30;;;;;;;;;;5030301;28;20469;-81
2023/04/21 07:02:27;;;;;;;17.08;12.30;;;;;;;;;;5030430;28;20438;-81
2023/04/21 07:04:55;;;;;;;22.48;13.00;;;;;;;;;;5033234;28;20415;-81
2023/04/21 07:07:21;;;;;;;18.35;13.02;;;;;;;;;;5031836;28;20809;-81
2023/04/21 07:09:48;;;;;;;17.02;12.35;;;;;;;;;;5031477;28;20808;-82
2023/04/21 07:12:15;;;;;;;16.33;12.85;;;;;;;;;;5031226;28;20927;-81
2023/04/21 07:14:42;;;;;;;19.02;12.32;;;;;;;;;;5029178;28;20916;-81
2023/04/21 07:17:10;;;;;;;17.80;12.13;;;;;;;;;;5032265;28;20426;-81
2023/04/21 07:19:36;;;;;;;16.70;11.70;;;;;;;;;;5031610;28;20456;-81
2023/04/21 07:22:04;;;;;;;19.27;13.43;;;;;;;;;;5030364;28;20858;-81
2023/04/21 07:24:30;;;;;;;20.90;12.18;;;;;;;;;;5030795;28;20438;-81
2023/04/21 07:26:58;;;;;;;18.98;12.88;;;;;;;;;;5031860;28;20404;-81
2023/04/21 07:29:25;;;;;;;15.98;13.27;;;;;;;;;;5030377;28;20427;-82
2023/04/21 07:31:52;;;;;;;18.77;13.00;;;;;;;;;;5060387;22;20433;-82
2023/04/21 07:34:18;;;;;;;15.25;12.45;;;;;;;;;;5059720;28;20440;-82
2023/04/21 07:36:45;;;;;;;17.83;12.73;;;;;;;;;;5057798;28;20437;-82
2023/04/21 07:39:13;;;;;;;15.88;13.27;;;;;;;;;;5061301;28;20414;-83
2023/04/21 07:41:39;;;;;;;17.85;12.48;;;;;;;;;;5058890;28;20424;-82
2023/04/21 07:44:06;;;;;;;16.88;12.20;;;;;;;;;;5056414;28;20429;-82
2023/04/21 07:46:32;;;;;;;16.48;12.27;;;;;;;;;;5056466;28;20921;-82
2023/04/21 07:48:59;;;;;;;33.25;12.82;;;;;;;;;;5057227;28;20436;-82
2023/04/21 07:51:26;;;;;;;17.38;11.93;;;;;;;;;;5054803;28;20449;-82
2023/04/21 07:53:52;;;;;;;14.48;12.00;;;;;;;;;;5060145;28;20494;-82
2023/04/21 07:56:20;;;;;;;15.70;11.90;;;;;;;;;;5057809;28;20420;-82
2023/04/21 07:58:47;;;;;;;15.90;12.20;;;;;;;;;;5058067;28;20576;-83
2023/04/21 08:01:13;;;;;;;15.77;11.40;;;;;;;;;;5057404;28;20415;-84
2023/04/21 08:03:39;;;;;;;16.20;12.38;;;;;;;;;;5059836;28;20425;-82
2023/04/21 08:06:06;;;;;;;15.73;11.57;;;;;;;;;;5056317;28;20436;-82
2023/04/21 08:08:32;;;;;;;16.80;11.77;;;;;;;;;;5056698;28;20424;-82
2023/04/21 08:10:59;;;;;;;14.85;12.35;;;;;;;;;;5057140;28;20490;-82
2023/04/21 08:13:26;;;;;;;15.00;11.15;;;;;;;;;;5060167;28;20417;-83
2023/04/21 08:15:53;;;;;;;15.90;12.00;;;;;;;;;;5052329;28;20424;-83
2023/04/21 08:18:19;;;;;;;14.38;11.63;;;;;;;;;;5053061;28;20434;-84
2023/04/21 08:20:46;;;;;;;15.68;11.90;;;;;;;;;;5056495;28;20517;-82
2023/04/21 08:23:13;;;;;;;12.52;11.15;;;;;;;;;;5057929;28;20435;-85
2023/04/21 08:25:39;;;;;;;13.77;10.48;;;;;;;;;;5056796;28;20929;-82
2023/04/21 08:28:06;;;;;;;14.48;11.43;;;;;;;;;;5056846;28;20434;-82
2023/04/21 08:30:33;;;;;;;14.73;11.90;;;;;;;;;;5058536;28;20422;-82
2023/04/21 08:33:00;;;;;;;17.90;11.52;;;;;;;;;;5056591;28;20925;-83
2023/04/21 08:35:26;;;;;;;13.23;11.13;;;;;;;;;;5057045;28;20410;-83
2023/04/21 08:37:53;;;;;;;17.58;11.50;;;;;;;;;;5056322;28;20522;-82
2023/04/21 08:40:19;;;;;;;15.90;11.35;;;;;;;;;;5056663;28;20422;-83
2023/04/21 08:42:45;;;;;;;17.45;12.10;;;;;;;;;;5057850;28;20417;-83
2023/04/21 08:45:12;;;;;;;15.60;11.68;;;;;;;;;;5055807;28;20423;-83
2023/04/21 08:47:40;;;;;;;18.15;11.90;;;;;;;;;;5057635;28;20424;-83
2023/04/21 08:50:07;;;;;;;13.63;10.43;;;;;;;;;;5057491;28;20414;-82
2023/04/21 08:52:34;;;;;;;14.77;10.80;;;;;;;;;;5054740;28;20440;-82
2023/04/21 08:55:00;;;;;;;14.48;11.10;;;;;;;;;;5055062;28;20426;-83
2023/04/21 08:57:28;;;;;;;15.55;10.73;;;;;;;;;;5056845;28;20429;-83
2023/04/21 08:59:54;;;;;;;16.52;10.48;;;;;;;;;;5057208;28;20421;-83
2023/04/21 09:02:21;;;;;;;13.90;10.30;;;;;;;;;;5057932;28;20422;-82
2023/04/21 09:04:50;;;;;;;16.30;10.77;;;;;;;;;;5055686;28;20425;-82
2023/04/21 09:07:30;;;;;;;13.73;9.90;;;;;;;;;;5056631;28;20511;-83
2023/04/21 09:09:57;;;;;;;12.70;10.40;;;;;;;;;;5056109;28;20944;-83
2023/04/21 09:12:23;;;;;;;15.00;10.20;;;;;;;;;;5054930;28;20471;-83
2023/04/21 09:14:50;;;;;;;22.35;11.57;;;;;;;;;;5056214;28;20438;-82
2023/04/21 09:17:17;;;;;;;13.40;10.52;;;;;;;;;;5054616;28;20435;-84
2023/04/21 09:19:44;;;;;;;14.03;11.23;;;;;;;;;;5057794;28;20444;-83
2023/04/21 09:22:15;;;;;;;14.35;11.18;;;;;;;;;;5047914;28;20447;-83
2023/04/21 09:24:46;;;;;;;14.05;10.70;;;;;;;;;;5056911;28;20424;-82
2023/04/21 09:27:15;;;;;;;17.65;11.30;;;;;;;;;;5055910;28;20414;-82
2023/04/21 09:29:45;;;;;;;13.82;11.38;;;;;;;;;;5053358;28;20441;-82
2023/04/21 09:32:12;;;;;;;12.35;11.05;;;;;;;;;;5055713;28;20831;-82
2023/04/21 09:34:41;;;;;;;15.70;10.63;;;;;;;;;;5053144;28;20414;-82
2023/04/21 09:37:07;;;;;;;13.83;10.50;;;;;;;;;;5055416;28;20429;-82
2023/04/21 09:39:35;;;;;;;13.57;11.10;;;;;;;;;;5058444;28;20940;-82
2023/04/21 09:42:01;;;;;;;13.70;10.18;;;;;;;;;;5057897;28;20428;-83
2023/04/21 09:44:28;;;;;;;15.98;10.00;;;;;;;;;;5055654;28;20406;-83
2023/04/21 09:46:58;;;;;;;14.27;9.88;;;;;;;;;;5057103;28;20416;-82
2023/04/21 09:49:29;;;;;;;15.48;10.40;;;;;;;;;;5054385;28;21344;-82
2023/04/21 09:51:55;;;;;;;13.45;9.70;;;;;;;;;;5050885;28;20439;-82
2023/04/21 09:54:26;;;;;;;13.82;10.75;;;;;;;;;;5055782;28;20429;-83
2023/04/21 09:56:56;;;;;;;16.73;10.30;;;;;;;;;;5058850;28;20434;-83
2023/04/21 09:59:26;;;;;;;14.38;10.95;;;;;;;;;;5055122;28;21039;-83
2023/04/21 10:01:53;;;;;;;11.13;10.03;;;;;;;;;;5056072;28;20434;-82
2023/04/21 10:04:21;;;;;;;15.48;10.50;;;;;;;;;;5052085;28;20795;-83
2023/04/21 10:06:47;;;;;;;15.27;11.20;;;;;;;;;;5056347;28;20456;-83
2023/04/21 10:09:16;;;;;;;12.48;10.10;;;;;;;;;;5056488;28;20413;-83
2023/04/21 10:11:42;;;;;;;16.02;10.07;;;;;;;;;;5056331;28;20438;-82
2023/04/21 10:14:10;;;;;;;14.90;9.70;;;;;;;;;;5057245;28;20416;-83
2023/04/21 10:16:37;;;;;;;14.30;10.85;;;;;;;;;;5056510;28;20441;-83
2023/04/21 10:19:22;;;;;;;14.85;9.30;;;;;;;;;;5053289;28;20457;-83
2023/04/21 10:21:49;;;;;;;14.10;10.40;;;;;;;;;;5046972;28;20811;-85
2023/04/21 10:24:15;;;;;;;14.88;10.18;;;;;;;;;;5055166;28;20424;-83
2023/04/21 10:26:42;;;;;;;14.13;9.73;;;;;;;;;;5052570;28;20439;-83
2023/04/21 10:29:08;;;;;;;14.20;9.87;;;;;;;;;;5055920;28;20440;-82
2023/04/21 10:31:37;;;;;;;11.82;10.00;;;;;;;;;;5053315;28;20447;-82
2023/04/21 10:34:13;;;;;;;13.30;9.98;;;;;;;;;;5053204;28;20582;-83
2023/04/21 10:36:47;;;;;;;13.32;10.30;;;;;;;;;;5054961;28;20775;-83
2023/04/21 10:39:25;;;;;;;12.07;9.85;;;;;;;;;;5051649;28;20425;-85
2023/04/21 10:41:51;;;;;;;10.63;9.50;;;;;;;;;;5056406;28;20435;-83
2023/04/21 10:44:18;;;;;;;12.55;9.88;;;;;;;;;;5054185;28;20436;-83
2023/04/21 10:46:46;;;;;;;12.90;10.65;;;;;;;;;;5056436;28;20450;-82
2023/04/21 10:49:21;;;;;;;15.40;10.73;;;;;;;;;;5055351;28;20425;-83
2023/04/21 10:52:08;;;;;;;11.52;10.32;;;;;;;;;;5056247;28;20415;-83
2023/04/21 10:54:40;;;;;;;14.85;10.30;;;;;;;;;;5054021;28;20421;-82
2023/04/21 10:57:08;;;;;;;11.57;10.15;;;;;;;;;;5054561;28;20935;-82
2023/04/21 10:59:34;;;;;;;11.53;10.10;;;;;;;;;;5055708;28;20432;-82
2023/04/21 11:02:02;;;;;;;13.13;10.30;;;;;;;;;;5055543;28;20825;-83
2023/04/21 11:04:30;;;;;;;14.13;10.30;;;;;;;;;;5054568;28;20927;-83
2023/04/21 11:07:05;;;;;;;14.23;10.27;;;;;;;;;;5057476;28;20413;-82
2023/04/21 11:09:31;;;;;;;13.65;10.35;;;;;;;;;;5053755;28;20408;-83
2023/04/21 11:11:58;;;;;;;12.93;9.95;;;;;;;;;;5056052;28;20893;-82
2023/04/21 11:14:24;;;;;;;15.00;10.00;;;;;;;;;;5053061;28;20437;-83
2023/04/21 11:16:51;;;;;;;13.43;9.63;;;;;;;;;;5056183;28;20429;-83
2023/04/21 11:19:19;;;;;;;13.10;10.45;;;;;;;;;;5056141;28;20440;-83
2023/04/21 11:21:48;;;;;;;11.35;9.43;;;;;;;;;;5057564;28;20461;-82
2023/04/21 11:24:14;;;;;;;12.90;9.23;;;;;;;;;;5057122;28;20436;-83
2023/04/21 11:26:41;;;;;;;13.20;9.45;;;;;;;;;;5058049;28;20428;-83
2023/04/21 11:29:08;;;;;;;10.45;8.82;;;;;;;;;;5057990;28;20435;-83
2023/04/21 11:31:35;;;;;;;13.23;9.88;;;;;;;;;;5058053;28;20439;-82
2023/04/21 11:34:04;;;;;;;12.57;9.50;;;;;;;;;;5058231;28;20850;-82
2023/04/21 11:36:32;;;;;;;13.07;10.60;;;;;;;;;;5059945;28;20417;-83
2023/04/21 11:38:58;;;;;;;11.65;10.45;;;;;;;;;;5057752;28;20432;-82
2023/04/21 11:41:25;;;;;;;12.33;10.47;;;;;;;;;;5058095;28;20424;-83
2023/04/21 11:43:51;;;;;;;10.50;9.40;;;;;;;;;;5059251;28;20740;-83
2023/04/21 11:46:19;;;;;;;10.80;9.70;;;;;;;;;;5055274;28;20429;-82
2023/04/21 11:48:46;;;;;;;12.05;10.02;;;;;;;;;;5057368;28;20522;-82
2023/04/21 11:51:16;;;;;;;12.30;9.43;;;;;;;;;;5059651;28;21201;-83
2023/04/21 11:53:46;;;;;;;12.80;9.80;;;;;;;;;;5057569;28;20448;-83
2023/04/21 11:56:16;;;;;;;10.15;9.15;;;;;;;;;;5058422;28;20423;-82
2023/04/21 11:58:44;;;;;;;12.47;9.80;;;;;;;;;;5059179;28;20528;-82
2023/04/21 12:01:11;;;;;;;11.40;9.65;;;;;;;;;;5055891;28;20421;-82
2023/04/21 12:03:37;;;;;;;13.63;9.82;;;;;;;;;;5059830;28;20459;-83
2023/04/21 12:06:05;;;;;;;12.03;10.33;;;;;;;;;;5057756;28;20427;-83
2023/04/21 12:08:31;;;;;;;8.77;7.88;;;;;;;;;;5054089;28;20536;-83
2023/04/21 12:10:59;;;;;;;10.13;7.60;;;;;;;;;;5055305;28;20429;-83
2023/04/21 12:13:27;;;;;;;12.60;7.28;;;;;;;;;;5058736;28;20416;-83
2023/04/21 12:15:53;;;;;;;8.93;7.70;;;;;;;;;;5058171;28;20415;-83
2023/04/21 12:18:20;;;;;;;11.27;7.60;;;;;;;;;;5058082;28;20517;-83
2023/04/21 12:20:50;;;;;;;8.05;7.25;;;;;;;;;;5050336;28;20791;-83
2023/04/21 12:23:16;;;;;;;9.05;7.28;;;;;;;;;;5057625;28;20440;-86
2023/04/21 12:25:43;;;;;;;8.20;7.25;;;;;;;;;;5057354;28;20417;-82
2023/04/21 12:28:11;;;;;;;8.45;7.25;;;;;;;;;;5059711;28;20419;-83
2023/04/21 12:30:38;;;;;;;13.70;8.40;;;;;;;;;;5054655;28;20421;-83
2023/04/21 12:33:04;;;;;;;8.88;7.78;;;;;;;;;;5056555;28;20422;-83
2023/04/21 12:35:32;;;;;;;10.07;8.03;;;;;;;;;;5058101;28;20421;-83
2023/04/21 12:37:58;;;;;;;12.13;8.70;;;;;;;;;;5054815;28;20427;-83
2023/04/21 12:40:25;;;;;;;10.38;8.95;;;;;;;;;;5058930;28;20418;-83
2023/04/21 12:42:52;;;;;;;9.95;8.15;;;;;;;;;;5056080;28;20413;-83
2023/04/21 12:45:20;;;;;;;11.75;8.40;;;;;;;;;;5058775;28;20426;-83
2023/04/21 12:47:46;;;;;;;8.90;7.50;;;;;;;;;;5056693;28;20434;-83
2023/04/21 12:50:13;;;;;;;9.35;7.13;;;;;;;;;;5057254;28;20411;-83
2023/04/21 12:52:39;;;;;;;8.68;7.55;;;;;;;;;;5057361;28;20546;-83
2023/04/21 12:55:06;;;;;;;10.30;7.60;;;;;;;;;;5057764;28;20415;-82
2023/04/21 12:57:32;;;;;;;9.27;7.30;;;;;;;;;;5055980;28;20425;-84
2023/04/21 12:59:58;;;;;;;8.45;7.00;;;;;;;;;;5058078;28;20469;-83
2023/04/21 13:02:26;;;;;;;8.47;7.00;;;;;;;;;;5056907;28;20439;-83
2023/04/21 13:04:53;;;;;;;10.70;7.85;;;;;;;;;;5054058;28;20422;-83
2023/04/21 13:07:20;;;;;;;9.70;7.43;;;;;;;;;;5057858;28;20408;-83
2023/04/21 13:09:47;;;;;;;8.32;7.03;;;;;;;;;;5055136;28;20434;-83
2023/04/21 13:12:13;;;;;;;9.80;6.65;;;;;;;;;;5060964;28;20412;-83
2023/04/21 13:14:39;;;;;;;10.15;6.90;;;;;;;;;;5055653;28;20421;-83
2023/04/21 13:17:06;;;;;;;8.88;7.60;;;;;;;;;;5052420;28;20436;-84
2023/04/21 13:19:33;;;;;;;8.90;7.10;;;;;;;;;;5054985;28;20411;-83
2023/04/21 13:22:00;;;;;;;9.00;7.40;;;;;;;;;;5058390;28;20901;-83
2023/04/21 13:24:26;;;;;;;10.52;7.60;;;;;;;;;;5056188;28;20500;-83
2023/04/21 13:26:53;;;;;;;10.68;7.53;;;;;;;;;;5056298;28;20429;-83
2023/04/21 13:29:20;;;;;;;12.35;6.95;;;;;;;;;;5058376;28;20416;-82
2023/04/21 13:31:46;;;;;;;9.55;6.82;;;;;;;;;;5077168;23;20433;-79
2023/04/21 13:34:12;;;;;;;7.60;6.90;;;;;;;;;;5049929;28;20417;-79
2023/04/21 13:36:40;;;;;;;7.87;7.03;;;;;;;;;;5049142;28;20934;-80
2023/04/21 13:39:09;;;;;;;7.38;6.60;;;;;;;;;;5030255;28;20426;-80
2023/04/21 13:41:35;;;;;;;9.65;7.65;;;;;;;;;;5048755;28;20413;-81
2023/04/21 13:44:02;;;;;;;10.00;7.20;;;;;;;;;;5046972;28;20452;-80
2023/04/21 13:46:28;;;;;;;7.95;7.15;;;;;;;;;;5011534;28;21010;-80
2023/04/21 13:48:55;;;;;;;11.88;6.93;;;;;;;;;;5046364;28;20442;-79
2023/04/21 13:51:22;;;;;;;11.10;7.53;;;;;;;;;;5047118;28;20425;-80
2023/04/21 13:53:49;;;;;;;8.55;7.50;;;;;;;;;;5048213;28;20533;-80
2023/04/21 13:56:16;;;;;;;7.95;7.25;;;;;;;;;;5046744;28;20452;-81
2023/04/21 13:58:43;;;;;;;8.50;7.05;;;;;;;;;;5030753;28;20456;-81
2023/04/21 14:01:09;;;;;;;8.30;6.30;;;;;;;;;;5046129;28;20421;-81
2023/04/21 14:03:35;;;;;;;7.35;6.65;;;;;;;;;;5048079;28;20426;-80
2023/04/21 14:06:02;;;;;;;7.68;6.90;;;;;;;;;;5045270;28;20433;-80
2023/04/21 14:08:28;;;;;;;10.48;7.15;;;;;;;;;;5049308;28;20429;-80
2023/04/21 14:10:56;;;;;;;7.43;6.20;;;;;;;;;;5043143;28;20425;-79
2023/04/21 14:13:23;;;;;;;8.30;6.50;;;;;;;;;;5050007;28;20425;-80
2023/04/21 14:15:52;;;;;;;7.10;6.00;;;;;;;;;;5048055;28;20425;-80
2023/04/21 14:18:18;;;;;;;7.95;6.68;;;;;;;;;;5040175;28;20485;-81
2023/04/21 14:20:45;;;;;;;7.93;6.55;;;;;;;;;;5041122;28;20433;-81